Spar Hydra — LAKL7 — position and weather

sailwx.info

Track history (hours):
 
Tides and Currents Weather Stations Pressure Air Temp Water Temp Dewpoint Dewpoint Depression Visibility Wind Speed Wind Dir Waves Ship Positions

Spar Hydra

Last reported at 2015-Apr-21 10:09 UTC. Time now 2015-Apr-21 23:23 UTC.
Position N 37°52' E 122°15'.

Length 190 m; draft 6.4 m.

Type: Ship. MMSI: 259701000.

Date/timePositionNaut miles runAvg speedWind from/ knotsBaromVisibWave heightAir tempDewpointWater temp
2015-Apr-21 10:09N 37°52' E 122°15'1013.0
2015-Apr-21 09:24N 37°46' E 122°25'1112.8
2015-Apr-21 08:32N 37°39' E 122°36'2610.9
2015-Apr-21 06:08N 37°17' E 122°52'611.0
2015-Apr-21 05:33N 37°10' E 122°53'1111.1
2015-Apr-21 04:33N 36°59' E 122°53'170 4.1
2015-Apr-19 11:12N 35°21' E 120°01'7 9.8
2015-Apr-19 10:31N 35°26' E 119°56'3 0.3
2015-Apr-19 00:28N 35°29' E 119°54'0 0.0
2015-Apr-18 16:04N 35°29' E 119°54'0 0.1
2015-Apr-18 15:16N 35°29' E 119°54'0 0.0
2015-Apr-18 13:16N 35°29' E 119°54'5 0.5
2015-Apr-18 03:33N 35°32' E 119°48'4 3.3
2015-Apr-18 02:26N 35°35' E 119°47'0 0.0
2015-Apr-18 01:32N 35°35' E 119°47'0 0.0
2015-Apr-18 00:32N 35°35' E 119°47'0 0.0
2015-Apr-17 23:32N 35°35' E 119°47'0 0.0
2015-Apr-17 22:25N 35°35' E 119°47'0 0.0
2015-Apr-17 21:32N 35°35' E 119°47'0 0.0
2015-Apr-17 20:32N 35°35' E 119°47'0 0.0
2015-Apr-17 19:31N 35°35' E 119°47'0 0.0
2015-Apr-17 18:26N 35°35' E 119°47'0 0.0
2015-Apr-17 17:31N 35°35' E 119°47'0 0.0
2015-Apr-17 16:31N 35°35' E 119°47'0 0.0
2015-Apr-17 15:25N 35°35' E 119°47'0 0.0
2015-Apr-17 14:31N 35°35' E 119°47'0 0.0
2015-Apr-17 12:31N 35°35' E 119°47'0 0.0
2015-Apr-17 09:13N 35°35' E 119°47'0 0.0
2015-Apr-17 08:31N 35°35' E 119°47'0 0.0
2015-Apr-17 07:25N 35°35' E 119°47'0 0.0
2015-Apr-17 06:32N 35°35' E 119°47'0 0.0
2015-Apr-17 05:14N 35°35' E 119°47'0 0.0
2015-Apr-17 04:14N 35°35' E 119°47'0 0.0
2015-Apr-17 03:31N 35°35' E 119°47'0 0.0
2015-Apr-17 02:26N 35°35' E 119°47'0 0.0
2015-Apr-17 01:26N 35°35' E 119°47'0 0.0
2015-Apr-16 09:26N 35°35' E 119°47'0 0.0
2015-Apr-16 06:32N 35°35' E 119°47'0 0.0
2015-Apr-16 04:22N 35°35' E 119°47'1 1.0
2015-Apr-16 03:33N 35°35' E 119°48'7 6.9
2015-Apr-16 02:32N 35°29' E 119°52'0 0.0
2015-Apr-16 00:32N 35°29' E 119°52'0 0.0
2015-Apr-15 22:08N 35°29' E 119°52'0 0.0
2015-Apr-15 20:26N 35°29' E 119°52'0 0.2
2015-Apr-15 19:20N 35°29' E 119°52'1 0.5
2015-Apr-15 17:17N 35°29' E 119°53'5 4.7
2015-Apr-15 16:08N 35°24' E 119°55'5 8.9
2015-Apr-15 15:33N 35°20' E 119°59'  
Track history (hours):
 
Tides and Currents Weather Stations Pressure Air Temp Water Temp Dewpoint Dewpoint Depression Visibility Wind Speed Wind Dir Waves Ship Positions

Spar Hydra

Last reported at 2015-Apr-21 10:09 UTC. Time now 2015-Apr-21 23:23 UTC.
Position N 37°52' E 122°15'.

Length 190 m; draft 6.4 m.

Type: Ship. MMSI: 259701000.

Date/timePositionNaut miles runAvg speedWind from/ knotsBaromVisibWave heightAir tempDewpointWater temp
2015-Apr-21 10:09N 37°52' E 122°15'1013.0
2015-Apr-21 09:24N 37°46' E 122°25'1112.8
2015-Apr-21 08:32N 37°39' E 122°36'2610.9
2015-Apr-21 06:08N 37°17' E 122°52'611.0
2015-Apr-21 05:33N 37°10' E 122°53'1111.1
2015-Apr-21 04:33N 36°59' E 122°53'170 4.1
2015-Apr-19 11:12N 35°21' E 120°01'7 9.8
2015-Apr-19 10:31N 35°26' E 119°56'3 0.3
2015-Apr-19 00:28N 35°29' E 119°54'0 0.0
2015-Apr-18 16:04N 35°29' E 119°54'0 0.1
2015-Apr-18 15:16N 35°29' E 119°54'0 0.0
2015-Apr-18 13:16N 35°29' E 119°54'5 0.5
2015-Apr-18 03:33N 35°32' E 119°48'4 3.3
2015-Apr-18 02:26N 35°35' E 119°47'0 0.0
2015-Apr-18 01:32N 35°35' E 119°47'0 0.0
2015-Apr-18 00:32N 35°35' E 119°47'0 0.0
2015-Apr-17 23:32N 35°35' E 119°47'0 0.0
2015-Apr-17 22:25N 35°35' E 119°47'0 0.0
2015-Apr-17 21:32N 35°35' E 119°47'0 0.0
2015-Apr-17 20:32N 35°35' E 119°47'0 0.0
2015-Apr-17 19:31N 35°35' E 119°47'0 0.0
2015-Apr-17 18:26N 35°35' E 119°47'0 0.0
2015-Apr-17 17:31N 35°35' E 119°47'0 0.0
2015-Apr-17 16:31N 35°35' E 119°47'0 0.0
2015-Apr-17 15:25N 35°35' E 119°47'0 0.0
2015-Apr-17 14:31N 35°35' E 119°47'0 0.0
2015-Apr-17 12:31N 35°35' E 119°47'0 0.0
2015-Apr-17 09:13N 35°35' E 119°47'0 0.0
2015-Apr-17 08:31N 35°35' E 119°47'0 0.0
2015-Apr-17 07:25N 35°35' E 119°47'0 0.0
2015-Apr-17 06:32N 35°35' E 119°47'0 0.0
2015-Apr-17 05:14N 35°35' E 119°47'0 0.0
2015-Apr-17 04:14N 35°35' E 119°47'0 0.0
2015-Apr-17 03:31N 35°35' E 119°47'0 0.0
2015-Apr-17 02:26N 35°35' E 119°47'0 0.0
2015-Apr-17 01:26N 35°35' E 119°47'0 0.0
2015-Apr-16 09:26N 35°35' E 119°47'0 0.0
2015-Apr-16 06:32N 35°35' E 119°47'0 0.0
2015-Apr-16 04:22N 35°35' E 119°47'1 1.0
2015-Apr-16 03:33N 35°35' E 119°48'7 6.9
2015-Apr-16 02:32N 35°29' E 119°52'0 0.0
2015-Apr-16 00:32N 35°29' E 119°52'0 0.0
2015-Apr-15 22:08N 35°29' E 119°52'0 0.0
2015-Apr-15 20:26N 35°29' E 119°52'0 0.2
2015-Apr-15 19:20N 35°29' E 119°52'1 0.5
2015-Apr-15 17:17N 35°29' E 119°53'5 4.7
2015-Apr-15 16:08N 35°24' E 119°55'5 8.9
2015-Apr-15 15:33N 35°20' E 119°59'  

Dump ship's entire track history